sensor_id;sensor_type;location;lat;lon;timestamp;P1;durP1;ratioP1;P2;durP2;ratioP2
7166;SDS011;3625;51.762;14.320;2023-03-22T00:00:45;16.93;;;12.27;;
7166;SDS011;3625;51.762;14.320;2023-03-22T00:03:16;14.00;;;12.13;;
7166;SDS011;3625;51.762;14.320;2023-03-22T00:05:45;14.03;;;11.80;;
7166;SDS011;3625;51.762;14.320;2023-03-22T00:08:14;14.63;;;12.30;;
7166;SDS011;3625;51.762;14.320;2023-03-22T00:10:43;12.57;;;10.97;;
7166;SDS011;3625;51.762;14.320;2023-03-22T00:13:14;14.40;;;11.63;;
7166;SDS011;3625;51.762;14.320;2023-03-22T00:15:43;11.23;;;10.13;;
7166;SDS011;3625;51.762;14.320;2023-03-22T00:18:15;11.43;;;9.53;;
7166;SDS011;3625;51.762;14.320;2023-03-22T00:20:47;15.10;;;10.80;;
7166;SDS011;3625;51.762;14.320;2023-03-22T00:23:17;13.60;;;10.17;;
7166;SDS011;3625;51.762;14.320;2023-03-22T00:25:46;12.30;;;11.00;;
7166;SDS011;3625;51.762;14.320;2023-03-22T00:28:15;14.40;;;10.93;;
7166;SDS011;3625;51.762;14.320;2023-03-22T00:30:49;12.07;;;10.67;;
7166;SDS011;3625;51.762;14.320;2023-03-22T00:33:22;12.07;;;10.30;;
7166;SDS011;3625;51.762;14.320;2023-03-22T00:35:51;12.63;;;10.53;;
7166;SDS011;3625;51.762;14.320;2023-03-22T00:38:21;12.90;;;11.17;;
7166;SDS011;3625;51.762;14.320;2023-03-22T00:41:08;11.23;;;9.47;;
7166;SDS011;3625;51.762;14.320;2023-03-22T00:43:38;12.63;;;10.67;;
7166;SDS011;3625;51.762;14.320;2023-03-22T00:46:07;14.73;;;10.10;;
7166;SDS011;3625;51.762;14.320;2023-03-22T00:48:38;12.03;;;10.17;;
7166;SDS011;3625;51.762;14.320;2023-03-22T00:51:07;11.93;;;10.40;;
7166;SDS011;3625;51.762;14.320;2023-03-22T00:53:37;11.87;;;8.93;;
7166;SDS011;3625;51.762;14.320;2023-03-22T00:56:09;11.13;;;9.80;;
7166;SDS011;3625;51.762;14.320;2023-03-22T00:58:53;10.47;;;9.40;;
7166;SDS011;3625;51.762;14.320;2023-03-22T01:01:22;10.20;;;8.97;;
7166;SDS011;3625;51.762;14.320;2023-03-22T01:03:54;13.33;;;10.03;;
7166;SDS011;3625;51.762;14.320;2023-03-22T01:06:23;13.70;;;9.47;;
7166;SDS011;3625;51.762;14.320;2023-03-22T01:08:52;9.97;;;8.40;;
7166;SDS011;3625;51.762;14.320;2023-03-22T01:11:22;9.00;;;7.93;;
7166;SDS011;3625;51.762;14.320;2023-03-22T01:13:52;9.43;;;8.13;;
7166;SDS011;3625;51.762;14.320;2023-03-22T01:16:21;11.27;;;8.83;;
7166;SDS011;3625;51.762;14.320;2023-03-22T01:18:50;9.63;;;7.83;;
7166;SDS011;3625;51.762;14.320;2023-03-22T01:21:20;11.00;;;9.30;;
7166;SDS011;3625;51.762;14.320;2023-03-22T01:23:49;9.50;;;8.50;;
7166;SDS011;3625;51.762;14.320;2023-03-22T01:26:17;10.13;;;8.87;;
7166;SDS011;3625;51.762;14.320;2023-03-22T01:28:47;9.40;;;7.70;;
7166;SDS011;3625;51.762;14.320;2023-03-22T01:31:15;12.10;;;9.10;;
7166;SDS011;3625;51.762;14.320;2023-03-22T01:33:44;10.83;;;8.87;;
7166;SDS011;3625;51.762;14.320;2023-03-22T01:36:13;9.73;;;8.30;;
7166;SDS011;3625;51.762;14.320;2023-03-22T01:38:44;9.37;;;7.60;;
7166;SDS011;3625;51.762;14.320;2023-03-22T01:41:13;9.93;;;8.93;;
7166;SDS011;3625;51.762;14.320;2023-03-22T01:43:43;10.50;;;8.53;;
7166;SDS011;3625;51.762;14.320;2023-03-22T01:46:12;8.93;;;8.00;;
7166;SDS011;3625;51.762;14.320;2023-03-22T01:48:42;11.57;;;9.10;;
7166;SDS011;3625;51.762;14.320;2023-03-22T01:51:14;9.03;;;8.13;;
7166;SDS011;3625;51.762;14.320;2023-03-22T01:54:20;14.23;;;10.87;;
7166;SDS011;3625;51.762;14.320;2023-03-22T01:56:57;9.30;;;8.40;;
7166;SDS011;3625;51.762;14.320;2023-03-22T01:59:34;11.73;;;10.53;;
7166;SDS011;3625;51.762;14.320;2023-03-22T02:02:14;13.70;;;11.47;;
7166;SDS011;3625;51.762;14.320;2023-03-22T02:04:52;13.47;;;10.47;;
7166;SDS011;3625;51.762;14.320;2023-03-22T02:07:26;12.87;;;11.00;;
7166;SDS011;3625;51.762;14.320;2023-03-22T02:10:00;13.30;;;11.00;;
7166;SDS011;3625;51.762;14.320;2023-03-22T02:12:43;14.87;;;12.87;;
7166;SDS011;3625;51.762;14.320;2023-03-22T02:15:47;16.00;;;11.33;;
7166;SDS011;3625;51.762;14.320;2023-03-22T02:18:39;13.53;;;11.43;;
7166;SDS011;3625;51.762;14.320;2023-03-22T02:21:36;19.23;;;12.70;;
7166;SDS011;3625;51.762;14.320;2023-03-22T02:24:36;15.23;;;13.37;;
7166;SDS011;3625;51.762;14.320;2023-03-22T02:30:30;16.47;;;14.17;;
7166;SDS011;3625;51.762;14.320;2023-03-22T02:36:54;16.37;;;12.40;;
7166;SDS011;3625;51.762;14.320;2023-03-22T02:39:47;16.73;;;12.70;;
7166;SDS011;3625;51.762;14.320;2023-03-22T02:42:26;17.80;;;13.00;;
7166;SDS011;3625;51.762;14.320;2023-03-22T02:45:07;16.83;;;13.93;;
7166;SDS011;3625;51.762;14.320;2023-03-22T02:47:41;14.23;;;12.80;;
7166;SDS011;3625;51.762;14.320;2023-03-22T02:50:21;14.73;;;12.43;;
7166;SDS011;3625;51.762;14.320;2023-03-22T02:52:56;13.87;;;11.73;;
7166;SDS011;3625;51.762;14.320;2023-03-22T02:55:33;14.77;;;12.07;;
7166;SDS011;3625;51.762;14.320;2023-03-22T02:58:06;20.37;;;15.07;;
7166;SDS011;3625;51.762;14.320;2023-03-22T03:00:38;15.47;;;12.13;;
7166;SDS011;3625;51.762;14.320;2023-03-22T03:03:10;17.83;;;14.17;;
7166;SDS011;3625;51.762;14.320;2023-03-22T03:05:44;16.43;;;12.50;;
7166;SDS011;3625;51.762;14.320;2023-03-22T03:08:20;14.17;;;12.10;;
7166;SDS011;3625;51.762;14.320;2023-03-22T03:10:52;15.37;;;11.70;;
7166;SDS011;3625;51.762;14.320;2023-03-22T03:13:21;15.77;;;12.63;;
7166;SDS011;3625;51.762;14.320;2023-03-22T03:15:51;18.93;;;15.67;;
7166;SDS011;3625;51.762;14.320;2023-03-22T03:18:26;16.93;;;13.80;;
7166;SDS011;3625;51.762;14.320;2023-03-22T03:21:14;18.13;;;13.77;;
7166;SDS011;3625;51.762;14.320;2023-03-22T03:23:52;15.83;;;12.50;;
7166;SDS011;3625;51.762;14.320;2023-03-22T03:26:29;15.10;;;12.80;;
7166;SDS011;3625;51.762;14.320;2023-03-22T03:29:07;18.10;;;13.40;;
7166;SDS011;3625;51.762;14.320;2023-03-22T03:31:41;17.73;;;12.03;;
7166;SDS011;3625;51.762;14.320;2023-03-22T03:34:15;15.73;;;13.23;;
7166;SDS011;3625;51.762;14.320;2023-03-22T03:36:49;16.83;;;13.17;;
7166;SDS011;3625;51.762;14.320;2023-03-22T03:39:23;14.43;;;12.40;;
7166;SDS011;3625;51.762;14.320;2023-03-22T03:41:58;14.27;;;12.10;;
7166;SDS011;3625;51.762;14.320;2023-03-22T03:44:30;15.83;;;12.80;;
7166;SDS011;3625;51.762;14.320;2023-03-22T03:47:02;15.90;;;12.97;;
7166;SDS011;3625;51.762;14.320;2023-03-22T03:49:33;16.90;;;13.37;;
7166;SDS011;3625;51.762;14.320;2023-03-22T03:52:04;17.80;;;14.37;;
7166;SDS011;3625;51.762;14.320;2023-03-22T03:54:33;14.83;;;12.40;;
7166;SDS011;3625;51.762;14.320;2023-03-22T03:57:06;18.43;;;14.30;;
7166;SDS011;3625;51.762;14.320;2023-03-22T03:59:36;17.27;;;13.67;;
7166;SDS011;3625;51.762;14.320;2023-03-22T04:02:14;17.83;;;13.87;;
7166;SDS011;3625;51.762;14.320;2023-03-22T04:04:43;17.37;;;13.70;;
7166;SDS011;3625;51.762;14.320;2023-03-22T04:07:12;18.33;;;14.43;;
7166;SDS011;3625;51.762;14.320;2023-03-22T04:09:41;17.17;;;12.33;;
7166;SDS011;3625;51.762;14.320;2023-03-22T04:12:37;16.13;;;12.10;;
7166;SDS011;3625;51.762;14.320;2023-03-22T04:15:10;17.37;;;14.40;;
7166;SDS011;3625;51.762;14.320;2023-03-22T04:17:42;15.30;;;12.10;;
7166;SDS011;3625;51.762;14.320;2023-03-22T04:20:13;18.00;;;14.70;;
7166;SDS011;3625;51.762;14.320;2023-03-22T04:22:43;16.70;;;13.47;;
7166;SDS011;3625;51.762;14.320;2023-03-22T04:25:12;16.13;;;14.23;;
7166;SDS011;3625;51.762;14.320;2023-03-22T04:27:57;17.13;;;13.80;;
7166;SDS011;3625;51.762;14.320;2023-03-22T04:30:31;19.43;;;14.37;;
7166;SDS011;3625;51.762;14.320;2023-03-22T04:33:24;18.03;;;12.50;;
7166;SDS011;3625;51.762;14.320;2023-03-22T04:36:10;14.93;;;11.83;;
7166;SDS011;3625;51.762;14.320;2023-03-22T04:39:08;17.30;;;13.60;;
7166;SDS011;3625;51.762;14.320;2023-03-22T04:41:41;16.27;;;12.73;;
7166;SDS011;3625;51.762;14.320;2023-03-22T04:44:12;14.93;;;13.43;;
7166;SDS011;3625;51.762;14.320;2023-03-22T04:46:46;18.07;;;13.27;;
7166;SDS011;3625;51.762;14.320;2023-03-22T04:49:16;20.07;;;13.33;;
7166;SDS011;3625;51.762;14.320;2023-03-22T04:51:45;16.80;;;13.30;;
7166;SDS011;3625;51.762;14.320;2023-03-22T04:54:33;17.77;;;14.03;;
7166;SDS011;3625;51.762;14.320;2023-03-22T04:57:04;16.67;;;14.03;;
7166;SDS011;3625;51.762;14.320;2023-03-22T04:59:42;16.63;;;12.77;;
7166;SDS011;3625;51.762;14.320;2023-03-22T05:02:10;19.23;;;13.63;;
7166;SDS011;3625;51.762;14.320;2023-03-22T05:04:41;16.23;;;11.37;;
7166;SDS011;3625;51.762;14.320;2023-03-22T05:07:20;12.93;;;11.37;;
7166;SDS011;3625;51.762;14.320;2023-03-22T05:09:53;13.90;;;10.90;;
7166;SDS011;3625;51.762;14.320;2023-03-22T05:12:22;13.53;;;10.23;;
7166;SDS011;3625;51.762;14.320;2023-03-22T05:15:01;14.37;;;11.33;;
7166;SDS011;3625;51.762;14.320;2023-03-22T05:17:35;14.87;;;12.20;;
7166;SDS011;3625;51.762;14.320;2023-03-22T05:20:04;15.57;;;12.23;;
7166;SDS011;3625;51.762;14.320;2023-03-22T05:22:37;16.30;;;12.70;;
7166;SDS011;3625;51.762;14.320;2023-03-22T05:25:08;15.57;;;12.93;;
7166;SDS011;3625;51.762;14.320;2023-03-22T05:27:42;15.13;;;12.30;;
7166;SDS011;3625;51.762;14.320;2023-03-22T05:30:32;18.03;;;12.30;;
7166;SDS011;3625;51.762;14.320;2023-03-22T05:33:16;14.93;;;11.53;;
7166;SDS011;3625;51.762;14.320;2023-03-22T05:35:49;14.63;;;10.80;;
7166;SDS011;3625;51.762;14.320;2023-03-22T05:38:18;16.93;;;12.50;;
7166;SDS011;3625;51.762;14.320;2023-03-22T05:40:50;11.90;;;10.43;;
7166;SDS011;3625;51.762;14.320;2023-03-22T05:43:19;15.43;;;11.57;;
7166;SDS011;3625;51.762;14.320;2023-03-22T05:45:50;15.00;;;11.20;;
7166;SDS011;3625;51.762;14.320;2023-03-22T05:48:42;14.73;;;11.60;;
7166;SDS011;3625;51.762;14.320;2023-03-22T05:51:12;13.53;;;10.73;;
7166;SDS011;3625;51.762;14.320;2023-03-22T05:53:46;14.40;;;11.77;;
7166;SDS011;3625;51.762;14.320;2023-03-22T05:56:18;17.73;;;13.30;;
7166;SDS011;3625;51.762;14.320;2023-03-22T05:58:57;15.53;;;12.53;;
7166;SDS011;3625;51.762;14.320;2023-03-22T06:01:27;14.77;;;12.03;;
7166;SDS011;3625;51.762;14.320;2023-03-22T06:04:10;17.00;;;11.97;;
7166;SDS011;3625;51.762;14.320;2023-03-22T06:06:58;14.10;;;11.67;;
7166;SDS011;3625;51.762;14.320;2023-03-22T06:09:46;16.77;;;13.48;;
7166;SDS011;3625;51.762;14.320;2023-03-22T06:12:19;11.97;;;10.43;;
7166;SDS011;3625;51.762;14.320;2023-03-22T06:15:16;15.03;;;9.87;;
7166;SDS011;3625;51.762;14.320;2023-03-22T06:18:12;13.27;;;10.50;;
7166;SDS011;3625;51.762;14.320;2023-03-22T06:20:46;12.00;;;10.27;;
7166;SDS011;3625;51.762;14.320;2023-03-22T06:23:19;12.83;;;9.77;;
7166;SDS011;3625;51.762;14.320;2023-03-22T06:26:31;16.40;;;9.83;;
7166;SDS011;3625;51.762;14.320;2023-03-22T06:29:00;12.33;;;9.70;;
7166;SDS011;3625;51.762;14.320;2023-03-22T06:31:31;16.63;;;12.20;;
7166;SDS011;3625;51.762;14.320;2023-03-22T06:34:04;15.60;;;10.63;;
7166;SDS011;3625;51.762;14.320;2023-03-22T06:36:39;12.30;;;10.27;;
7166;SDS011;3625;51.762;14.320;2023-03-22T06:39:15;9.60;;;8.30;;
7166;SDS011;3625;51.762;14.320;2023-03-22T06:41:44;12.70;;;10.83;;
7166;SDS011;3625;51.762;14.320;2023-03-22T06:44:14;13.73;;;10.53;;
7166;SDS011;3625;51.762;14.320;2023-03-22T06:46:48;8.87;;;7.83;;
7166;SDS011;3625;51.762;14.320;2023-03-22T06:49:41;10.97;;;9.00;;
7166;SDS011;3625;51.762;14.320;2023-03-22T06:52:17;13.07;;;9.73;;
7166;SDS011;3625;51.762;14.320;2023-03-22T06:54:46;10.33;;;9.23;;
7166;SDS011;3625;51.762;14.320;2023-03-22T06:57:18;8.67;;;7.57;;
7166;SDS011;3625;51.762;14.320;2023-03-22T06:59:47;12.23;;;10.00;;
7166;SDS011;3625;51.762;14.320;2023-03-22T07:05:26;12.57;;;10.50;;
7166;SDS011;3625;51.762;14.320;2023-03-22T07:07:55;12.17;;;9.27;;
7166;SDS011;3625;51.762;14.320;2023-03-22T07:10:25;11.53;;;9.20;;
7166;SDS011;3625;51.762;14.320;2023-03-22T07:12:54;12.23;;;8.47;;
7166;SDS011;3625;51.762;14.320;2023-03-22T07:15:23;13.97;;;10.47;;
7166;SDS011;3625;51.762;14.320;2023-03-22T07:18:01;11.17;;;9.23;;
7166;SDS011;3625;51.762;14.320;2023-03-22T07:20:34;10.97;;;8.90;;
7166;SDS011;3625;51.762;14.320;2023-03-22T07:23:07;12.40;;;10.43;;
7166;SDS011;3625;51.762;14.320;2023-03-22T07:25:46;10.43;;;9.23;;
7166;SDS011;3625;51.762;14.320;2023-03-22T07:28:21;11.23;;;8.57;;
7166;SDS011;3625;51.762;14.320;2023-03-22T07:30:58;11.50;;;9.50;;
7166;SDS011;3625;51.762;14.320;2023-03-22T07:33:31;10.27;;;7.93;;
7166;SDS011;3625;51.762;14.320;2023-03-22T07:36:02;10.88;;;8.13;;
7166;SDS011;3625;51.762;14.320;2023-03-22T07:38:31;11.17;;;8.50;;
7166;SDS011;3625;51.762;14.320;2023-03-22T07:41:03;10.65;;;8.63;;
7166;SDS011;3625;51.762;14.320;2023-03-22T07:43:52;9.93;;;8.15;;
7166;SDS011;3625;51.762;14.320;2023-03-22T07:46:45;9.53;;;7.93;;
7166;SDS011;3625;51.762;14.320;2023-03-22T07:49:26;9.97;;;8.10;;
7166;SDS011;3625;51.762;14.320;2023-03-22T07:52:09;9.17;;;8.10;;
7166;SDS011;3625;51.762;14.320;2023-03-22T07:54:39;10.00;;;7.80;;
7166;SDS011;3625;51.762;14.320;2023-03-22T07:57:08;9.93;;;7.43;;
7166;SDS011;3625;51.762;14.320;2023-03-22T07:59:42;8.98;;;6.55;;
7166;SDS011;3625;51.762;14.320;2023-03-22T08:02:12;9.77;;;8.02;;
7166;SDS011;3625;51.762;14.320;2023-03-22T08:04:48;8.32;;;7.30;;
7166;SDS011;3625;51.762;14.320;2023-03-22T08:07:29;8.75;;;7.45;;
7166;SDS011;3625;51.762;14.320;2023-03-22T08:09:58;8.65;;;7.25;;
7166;SDS011;3625;51.762;14.320;2023-03-22T08:12:27;9.00;;;7.63;;
7166;SDS011;3625;51.762;14.320;2023-03-22T08:15:07;9.68;;;7.18;;
7166;SDS011;3625;51.762;14.320;2023-03-22T08:17:36;8.27;;;7.45;;
7166;SDS011;3625;51.762;14.320;2023-03-22T08:20:11;8.55;;;7.18;;
7166;SDS011;3625;51.762;14.320;2023-03-22T08:22:49;8.88;;;7.05;;
7166;SDS011;3625;51.762;14.320;2023-03-22T08:25:48;8.13;;;6.18;;
7166;SDS011;3625;51.762;14.320;2023-03-22T08:28:17;8.13;;;6.68;;
7166;SDS011;3625;51.762;14.320;2023-03-22T08:30:47;8.20;;;7.25;;
7166;SDS011;3625;51.762;14.320;2023-03-22T08:33:17;7.57;;;6.82;;
7166;SDS011;3625;51.762;14.320;2023-03-22T08:35:49;9.73;;;7.68;;
7166;SDS011;3625;51.762;14.320;2023-03-22T08:38:21;9.55;;;7.40;;
7166;SDS011;3625;51.762;14.320;2023-03-22T08:40:52;6.88;;;6.13;;
7166;SDS011;3625;51.762;14.320;2023-03-22T08:43:23;8.73;;;6.55;;
7166;SDS011;3625;51.762;14.320;2023-03-22T08:45:53;7.80;;;6.72;;
7166;SDS011;3625;51.762;14.320;2023-03-22T08:48:23;9.65;;;7.45;;
7166;SDS011;3625;51.762;14.320;2023-03-22T08:51:05;10.23;;;6.88;;
7166;SDS011;3625;51.762;14.320;2023-03-22T08:54:05;7.30;;;6.47;;
7166;SDS011;3625;51.762;14.320;2023-03-22T08:56:57;7.95;;;6.65;;
7166;SDS011;3625;51.762;14.320;2023-03-22T08:59:48;6.93;;;6.22;;
7166;SDS011;3625;51.762;14.320;2023-03-22T09:02:37;7.63;;;6.10;;
7166;SDS011;3625;51.762;14.320;2023-03-22T09:05:07;7.07;;;6.28;;
7166;SDS011;3625;51.762;14.320;2023-03-22T09:07:38;7.00;;;5.82;;
7166;SDS011;3625;51.762;14.320;2023-03-22T09:10:31;6.80;;;5.80;;
7166;SDS011;3625;51.762;14.320;2023-03-22T09:13:01;7.63;;;6.43;;
7166;SDS011;3625;51.762;14.320;2023-03-22T09:15:31;8.10;;;6.05;;
7166;SDS011;3625;51.762;14.320;2023-03-22T09:18:12;7.90;;;6.40;;
7166;SDS011;3625;51.762;14.320;2023-03-22T09:20:42;8.90;;;5.97;;
7166;SDS011;3625;51.762;14.320;2023-03-22T09:23:19;8.50;;;6.00;;
7166;SDS011;3625;51.762;14.320;2023-03-22T09:25:49;7.95;;;5.68;;
7166;SDS011;3625;51.762;14.320;2023-03-22T09:28:22;8.10;;;5.97;;
7166;SDS011;3625;51.762;14.320;2023-03-22T09:31:06;7.68;;;6.30;;
7166;SDS011;3625;51.762;14.320;2023-03-22T09:33:37;7.07;;;5.07;;
7166;SDS011;3625;51.762;14.320;2023-03-22T09:36:11;6.35;;;5.45;;
7166;SDS011;3625;51.762;14.320;2023-03-22T09:38:40;8.68;;;5.75;;
7166;SDS011;3625;51.762;14.320;2023-03-22T09:41:12;5.35;;;4.82;;
7166;SDS011;3625;51.762;14.320;2023-03-22T09:43:45;7.95;;;5.65;;
7166;SDS011;3625;51.762;14.320;2023-03-22T09:46:19;5.53;;;4.90;;
7166;SDS011;3625;51.762;14.320;2023-03-22T09:48:56;9.10;;;6.57;;
7166;SDS011;3625;51.762;14.320;2023-03-22T09:51:29;7.90;;;5.55;;
7166;SDS011;3625;51.762;14.320;2023-03-22T09:54:11;7.75;;;5.88;;
7166;SDS011;3625;51.762;14.320;2023-03-22T09:56:45;8.55;;;5.88;;
7166;SDS011;3625;51.762;14.320;2023-03-22T09:59:21;6.20;;;5.60;;
7166;SDS011;3625;51.762;14.320;2023-03-22T10:01:57;7.97;;;5.72;;
7166;SDS011;3625;51.762;14.320;2023-03-22T10:04:37;8.25;;;7.30;;
7166;SDS011;3625;51.762;14.320;2023-03-22T10:07:23;7.07;;;5.60;;
7166;SDS011;3625;51.762;14.320;2023-03-22T10:10:02;7.00;;;5.57;;
7166;SDS011;3625;51.762;14.320;2023-03-22T10:12:42;7.07;;;5.30;;
7166;SDS011;3625;51.762;14.320;2023-03-22T10:15:19;6.50;;;5.85;;
7166;SDS011;3625;51.762;14.320;2023-03-22T10:17:55;7.95;;;6.43;;
7166;SDS011;3625;51.762;14.320;2023-03-22T10:20:30;6.70;;;6.03;;
7166;SDS011;3625;51.762;14.320;2023-03-22T10:23:06;6.43;;;5.72;;
7166;SDS011;3625;51.762;14.320;2023-03-22T10:25:39;5.72;;;5.00;;
7166;SDS011;3625;51.762;14.320;2023-03-22T10:28:14;7.00;;;5.43;;
7166;SDS011;3625;51.762;14.320;2023-03-22T10:30:47;8.20;;;5.63;;
7166;SDS011;3625;51.762;14.320;2023-03-22T10:33:22;6.95;;;5.38;;
7166;SDS011;3625;51.762;14.320;2023-03-22T10:35:59;5.93;;;4.60;;
7166;SDS011;3625;51.762;14.320;2023-03-22T10:38:30;6.90;;;4.93;;
7166;SDS011;3625;51.762;14.320;2023-03-22T10:41:01;6.70;;;4.70;;
7166;SDS011;3625;51.762;14.320;2023-03-22T10:43:34;6.10;;;5.50;;
7166;SDS011;3625;51.762;14.320;2023-03-22T10:46:06;5.82;;;4.78;;
7166;SDS011;3625;51.762;14.320;2023-03-22T10:48:43;7.10;;;5.22;;
7166;SDS011;3625;51.762;14.320;2023-03-22T10:51:17;8.98;;;5.15;;
7166;SDS011;3625;51.762;14.320;2023-03-22T10:53:50;5.97;;;4.80;;
7166;SDS011;3625;51.762;14.320;2023-03-22T10:56:23;6.53;;;4.70;;
7166;SDS011;3625;51.762;14.320;2023-03-22T10:58:54;6.03;;;4.78;;
7166;SDS011;3625;51.762;14.320;2023-03-22T11:01:24;5.35;;;4.55;;
7166;SDS011;3625;51.762;14.320;2023-03-22T11:03:58;6.18;;;4.85;;
7166;SDS011;3625;51.762;14.320;2023-03-22T11:06:33;4.75;;;4.25;;
7166;SDS011;3625;51.762;14.320;2023-03-22T11:09:11;5.13;;;4.40;;
7166;SDS011;3625;51.762;14.320;2023-03-22T11:11:45;5.68;;;4.38;;
7166;SDS011;3625;51.762;14.320;2023-03-22T11:14:19;5.13;;;4.63;;
7166;SDS011;3625;51.762;14.320;2023-03-22T11:16:54;7.90;;;4.85;;
7166;SDS011;3625;51.762;14.320;2023-03-22T11:19:28;7.22;;;4.65;;
7166;SDS011;3625;51.762;14.320;2023-03-22T11:22:01;5.72;;;4.80;;
7166;SDS011;3625;51.762;14.320;2023-03-22T11:24:32;5.55;;;4.35;;
7166;SDS011;3625;51.762;14.320;2023-03-22T11:27:03;6.18;;;4.35;;
7166;SDS011;3625;51.762;14.320;2023-03-22T11:29:40;5.60;;;4.47;;
7166;SDS011;3625;51.762;14.320;2023-03-22T11:32:23;5.53;;;4.20;;
7166;SDS011;3625;51.762;14.320;2023-03-22T11:34:58;4.90;;;3.35;;
7166;SDS011;3625;51.762;14.320;2023-03-22T11:37:28;6.28;;;4.00;;
7166;SDS011;3625;51.762;14.320;2023-03-22T11:40:00;4.93;;;4.00;;
7166;SDS011;3625;51.762;14.320;2023-03-22T11:42:40;4.80;;;3.58;;
7166;SDS011;3625;51.762;14.320;2023-03-22T11:45:12;4.88;;;3.10;;
7166;SDS011;3625;51.762;14.320;2023-03-22T11:47:43;4.45;;;3.55;;
7166;SDS011;3625;51.762;14.320;2023-03-22T11:50:20;5.20;;;3.38;;
7166;SDS011;3625;51.762;14.320;2023-03-22T11:52:54;4.28;;;2.70;;
7166;SDS011;3625;51.762;14.320;2023-03-22T11:55:24;5.05;;;3.05;;
7166;SDS011;3625;51.762;14.320;2023-03-22T11:57:53;4.47;;;2.90;;
7166;SDS011;3625;51.762;14.320;2023-03-22T12:00:24;2.63;;;2.40;;
7166;SDS011;3625;51.762;14.320;2023-03-22T12:02:56;4.82;;;2.97;;
7166;SDS011;3625;51.762;14.320;2023-03-22T12:05:34;6.20;;;2.55;;
7166;SDS011;3625;51.762;14.320;2023-03-22T12:08:08;2.70;;;2.15;;
7166;SDS011;3625;51.762;14.320;2023-03-22T12:10:46;3.60;;;2.47;;
7166;SDS011;3625;51.762;14.320;2023-03-22T12:13:20;3.13;;;2.20;;
7166;SDS011;3625;51.762;14.320;2023-03-22T12:15:54;3.50;;;2.35;;
7166;SDS011;3625;51.762;14.320;2023-03-22T12:18:28;3.15;;;2.20;;
7166;SDS011;3625;51.762;14.320;2023-03-22T12:21:01;4.25;;;2.00;;
7166;SDS011;3625;51.762;14.320;2023-03-22T12:23:31;7.45;;;2.40;;
7166;SDS011;3625;51.762;14.320;2023-03-22T12:26:02;4.60;;;2.25;;
7166;SDS011;3625;51.762;14.320;2023-03-22T12:28:34;2.70;;;2.20;;
7166;SDS011;3625;51.762;14.320;2023-03-22T12:31:10;3.60;;;2.35;;
7166;SDS011;3625;51.762;14.320;2023-03-22T12:33:43;3.08;;;2.10;;
7166;SDS011;3625;51.762;14.320;2023-03-22T12:36:15;2.53;;;1.42;;
7166;SDS011;3625;51.762;14.320;2023-03-22T12:38:47;4.03;;;2.45;;
7166;SDS011;3625;51.762;14.320;2023-03-22T12:41:22;3.55;;;2.38;;
7166;SDS011;3625;51.762;14.320;2023-03-22T12:43:54;3.35;;;2.38;;
7166;SDS011;3625;51.762;14.320;2023-03-22T12:46:28;3.65;;;2.35;;
7166;SDS011;3625;51.762;14.320;2023-03-22T12:49:04;3.13;;;2.20;;
7166;SDS011;3625;51.762;14.320;2023-03-22T12:51:42;2.80;;;2.13;;
7166;SDS011;3625;51.762;14.320;2023-03-22T12:54:13;4.47;;;2.17;;
7166;SDS011;3625;51.762;14.320;2023-03-22T12:56:45;2.92;;;1.90;;
7166;SDS011;3625;51.762;14.320;2023-03-22T12:59:15;3.00;;;1.73;;
7166;SDS011;3625;51.762;14.320;2023-03-22T13:01:52;2.55;;;1.88;;
7166;SDS011;3625;51.762;14.320;2023-03-22T13:04:25;2.90;;;1.80;;
7166;SDS011;3625;51.762;14.320;2023-03-22T13:07:13;2.33;;;2.10;;
7166;SDS011;3625;51.762;14.320;2023-03-22T13:09:57;2.90;;;2.20;;
7166;SDS011;3625;51.762;14.320;2023-03-22T13:12:28;3.22;;;2.08;;
7166;SDS011;3625;51.762;14.320;2023-03-22T13:15:00;2.35;;;2.00;;
7166;SDS011;3625;51.762;14.320;2023-03-22T13:18:13;3.50;;;1.87;;
7166;SDS011;3625;51.762;14.320;2023-03-22T13:21:11;3.03;;;1.90;;
7166;SDS011;3625;51.762;14.320;2023-03-22T13:23:52;2.00;;;1.80;;
7166;SDS011;3625;51.762;14.320;2023-03-22T13:26:30;2.30;;;2.00;;
7166;SDS011;3625;51.762;14.320;2023-03-22T13:29:09;2.78;;;1.90;;
7166;SDS011;3625;51.762;14.320;2023-03-22T13:31:43;3.88;;;2.22;;
7166;SDS011;3625;51.762;14.320;2023-03-22T13:34:16;5.05;;;2.60;;
7166;SDS011;3625;51.762;14.320;2023-03-22T13:36:47;5.00;;;2.67;;
7166;SDS011;3625;51.762;14.320;2023-03-22T13:39:19;4.47;;;2.33;;
7166;SDS011;3625;51.762;14.320;2023-03-22T13:41:59;2.47;;;2.17;;
7166;SDS011;3625;51.762;14.320;2023-03-22T13:44:37;2.50;;;2.30;;
7166;SDS011;3625;51.762;14.320;2023-03-22T13:47:27;2.65;;;2.10;;
7166;SDS011;3625;51.762;14.320;2023-03-22T13:50:06;4.68;;;2.60;;
7166;SDS011;3625;51.762;14.320;2023-03-22T13:52:40;3.58;;;2.20;;
7166;SDS011;3625;51.762;14.320;2023-03-22T13:55:14;4.13;;;2.88;;
7166;SDS011;3625;51.762;14.320;2023-03-22T13:58:08;4.03;;;2.60;;
7166;SDS011;3625;51.762;14.320;2023-03-22T14:00:39;3.22;;;2.30;;
7166;SDS011;3625;51.762;14.320;2023-03-22T14:03:21;2.75;;;2.55;;
7166;SDS011;3625;51.762;14.320;2023-03-22T14:06:00;4.45;;;2.45;;
7166;SDS011;3625;51.762;14.320;2023-03-22T14:08:37;4.20;;;3.00;;
7166;SDS011;3625;51.762;14.320;2023-03-22T14:11:15;4.13;;;2.97;;
7166;SDS011;3625;51.762;14.320;2023-03-22T14:13:49;4.07;;;2.50;;
7166;SDS011;3625;51.762;14.320;2023-03-22T14:16:27;2.85;;;2.53;;
7166;SDS011;3625;51.762;14.320;2023-03-22T14:19:03;3.75;;;2.40;;
7166;SDS011;3625;51.762;14.320;2023-03-22T14:21:37;2.75;;;2.30;;
7166;SDS011;3625;51.762;14.320;2023-03-22T14:24:11;3.80;;;2.60;;
7166;SDS011;3625;51.762;14.320;2023-03-22T14:26:41;4.38;;;2.67;;
7166;SDS011;3625;51.762;14.320;2023-03-22T14:29:13;2.20;;;1.92;;
7166;SDS011;3625;51.762;14.320;2023-03-22T14:31:43;3.70;;;2.20;;
7166;SDS011;3625;51.762;14.320;2023-03-22T14:34:13;2.55;;;2.35;;
7166;SDS011;3625;51.762;14.320;2023-03-22T14:36:46;2.22;;;2.00;;
7166;SDS011;3625;51.762;14.320;2023-03-22T14:39:15;2.95;;;1.80;;
7166;SDS011;3625;51.762;14.320;2023-03-22T14:41:56;3.65;;;2.10;;
7166;SDS011;3625;51.762;14.320;2023-03-22T14:44:26;2.55;;;1.98;;
7166;SDS011;3625;51.762;14.320;2023-03-22T14:47:01;2.60;;;1.98;;
7166;SDS011;3625;51.762;14.320;2023-03-22T14:49:37;3.60;;;2.20;;
7166;SDS011;3625;51.762;14.320;2023-03-22T14:52:10;3.28;;;2.10;;
7166;SDS011;3625;51.762;14.320;2023-03-22T14:54:41;2.22;;;2.03;;
7166;SDS011;3625;51.762;14.320;2023-03-22T14:57:10;2.90;;;1.98;;
7166;SDS011;3625;51.762;14.320;2023-03-22T14:59:41;3.65;;;2.22;;
7166;SDS011;3625;51.762;14.320;2023-03-22T15:02:19;2.30;;;2.00;;
7166;SDS011;3625;51.762;14.320;2023-03-22T15:04:50;2.78;;;1.88;;
7166;SDS011;3625;51.762;14.320;2023-03-22T15:07:20;2.40;;;2.17;;
7166;SDS011;3625;51.762;14.320;2023-03-22T15:09:48;3.70;;;2.10;;
7166;SDS011;3625;51.762;14.320;2023-03-22T15:12:15;2.63;;;2.25;;
7166;SDS011;3625;51.762;14.320;2023-03-22T15:14:46;3.75;;;1.92;;
7166;SDS011;3625;51.762;14.320;2023-03-22T15:17:14;3.35;;;2.00;;
7166;SDS011;3625;51.762;14.320;2023-03-22T15:19:45;2.80;;;1.95;;
7166;SDS011;3625;51.762;14.320;2023-03-22T15:22:16;2.85;;;2.10;;
7166;SDS011;3625;51.762;14.320;2023-03-22T15:24:50;2.83;;;1.80;;
7166;SDS011;3625;51.762;14.320;2023-03-22T15:27:19;3.90;;;2.10;;
7166;SDS011;3625;51.762;14.320;2023-03-22T15:29:47;2.33;;;1.67;;
7166;SDS011;3625;51.762;14.320;2023-03-22T15:32:17;3.40;;;1.77;;
7166;SDS011;3625;51.762;14.320;2023-03-22T15:34:47;2.20;;;1.90;;
7166;SDS011;3625;51.762;14.320;2023-03-22T15:37:18;2.80;;;1.77;;
7166;SDS011;3625;51.762;14.320;2023-03-22T15:39:53;3.72;;;1.88;;
7166;SDS011;3625;51.762;14.320;2023-03-22T15:42:24;2.22;;;1.83;;
7166;SDS011;3625;51.762;14.320;2023-03-22T15:44:59;2.10;;;1.90;;
7166;SDS011;3625;51.762;14.320;2023-03-22T15:47:28;3.65;;;1.95;;